Free Trial

This company has been marked as potentially delisted and may not be actively trading.

BlackRock MuniYield Quality Fund II (MQT) Institutional Ownership

BlackRock MuniYield Quality Fund II logo

Institutional Ownership Changes (13F Filings) for BlackRock MuniYield Quality Fund II (NYSE:MQT)

Current
Institutional Ownership
Percentage
30.75%
Number of
Institutional Buyers
(last 12 months)
35
Total
Institutional Inflows
(last 12 months)
$19.27M
Number of
Institutional Sellers
(last 12 months)
22
Total
Institutional Outflows
(last 12 months)
$6.73M
Get MQT Insider Trade Alerts

Want to know when executives and insiders are buying or selling BlackRock MuniYield Quality Fund II stock? Sign up for InsiderTrades.com's daily newsletter to get the latest insider transactions delivered to your inbox daily.

SMS is currently available in Australia, Belgium, Canada, France, Germany, Ireland, Italy, New Zealand, the Netherlands, Singapore, South Africa, Spain, Switzerland, the United Kingdom, and the United States. By entering your phone number and clicking the sign-up button, you agree to receive periodic text messages from MarketBeat at the phone number you submitted, including texts that may be sent using an automatic telephone dialing system. Message and data rates may apply. Message frequency will vary. Messages will consist of stock alerts, news stories, and partner advertisements/offers. Consent is not a condition of the purchase of any goods or services. Text HELP for help/customer support. Unsubscribe at any time by replying "STOP" to any text message that you receive from MarketBeat or by visiting our mailing preferences page. Read our full terms of service and privacy policy.
Skip Chart & View Institutional Buying and Selling Data

MQT Institutional Buying and Selling by Quarter

BlackRock MuniYield Quality Fund II Major Shareholders & Ownership History

Reporting DateMajor Shareholder NameShares HeldMarket Value% of PortfolioQuarterly Change in SharesOwnership in CompanyDetails
2/25/2026Sit Investment Associates Inc.1,241,695$12.48M0.2%+33.3%0.000%
2/18/2026NewEdge Advisors LLC139,571$1.50M0.0%+500.1%0.000%
2/18/2026Rivernorth Capital Management LLC1,476,073$14.84M0.7%+1.9%0.000%
2/17/2026Guggenheim Capital LLC164,566$1.65M0.0%-50.2%0.000%
2/17/2026Osaic Holdings Inc.31,755$319K0.0%+14.6%0.000%
2/13/2026Van ECK Associates Corp182,931$1.84M0.0%+25.7%0.000%
2/13/2026Wells Fargo & Company MN66,402$667K0.0%-14.7%0.000%
2/12/2026StoneX Group Inc.148,316$1.49M0.1%+3.2%0.000%
2/12/2026Steward Partners Investment Advisory LLC9,054$91K0.0%+21.5%0.000%
2/12/2026Sit Investment Associates Inc.1,241,695$12.48M0.2%+33.3%0.000%
2/12/2026 Nuveen LLC21,471$216K0.0%+67.1%0.000%
2/11/2026Wellspring Financial Advisors LLC19,872$200K0.0%+88.0%0.000%
2/11/2026LPL Financial LLC70,126$705K0.0%+21.7%0.000%
2/11/2026Fiera Capital Corp187,974$1.89M0.0%+6.3%0.000%
2/11/2026Ackerman Capital Advisors LLC20,579$207K0.0%N/A0.000%
2/6/2026HighTower Advisors LLC20,319$204K0.0%+14.3%0.000%
2/5/2026Elyxium Wealth LLC2,747$28K0.0%N/A0.000%
2/3/2026 Total Investment Management Inc.12,311$124K0.0%-19.4%0.000%
2/2/2026 Wolverine Asset Management LLC106,835$1.07M0.0%+23.7%0.000%
1/29/2026 Verdence Capital Advisors LLC12,513$126K0.0%N/A0.000%
1/29/2026 Mackay Shields LLC1,008,573$10.14M0.4%-1.8%0.000%
1/26/2026 River Street Advisors LLC12,044$121K0.0%N/A0.000%
1/20/2026 Stratos Wealth Partners LTD.32,571$327K0.0%+25.1%0.000%
1/14/2026Hennion & Walsh Asset Management Inc.339,580$3.41M0.1%-5.5%0.000%
1/13/2026Dakota Wealth Management11,201$113K0.0%N/A0.000%
1/6/2026 Canal Capital Management LLC22,297$224K0.0%+50.1%0.000%
11/17/2025Susquehanna International Group LLP15,056$151K0.0%-54.0%0.000%
11/17/2025Bank of America Corp DE208,799$2.09M0.0%-11.6%0.000%
11/17/2025Ameriprise Financial Inc.33,825$339K0.0%+4.9%0.000%
11/14/2025Raymond James Financial Inc.674,204$6.76M0.0%+10.1%0.000%
11/13/2025Pathstone Holdings LLC279,215$2.80M0.0%+9.8%0.000%
11/13/2025Franklin Resources Inc.17,000$171K0.0%-21.4%0.000%
11/13/2025Van ECK Associates Corp145,555$1.46M0.0%+4.3%0.000%
11/13/2025Yakira Capital Management Inc.32,236$323K0.1%N/A0.000%
11/13/2025First Trust Advisors LP10,461$105K0.0%-9.2%0.000%
11/7/2025Fiera Capital Corp176,805$1.77M0.0%-0.9%0.000%
11/7/2025Rothschild Investment LLC2,500$25K0.0%-95.1%0.000%
11/6/2025 Whipplewood Advisors LLC35,014$351K0.2%+3.4%0.000%
11/6/2025 Stratos Wealth Partners LTD.26,027$261K0.0%+128.9%0.000%
11/5/2025Lokken Investment Group LLC22,757$228K0.1%+64.7%0.000%
11/4/2025High Note Wealth LLC2,809$28K0.0%-58.1%0.000%
10/28/2025 Wolverine Asset Management LLC86,366$866K0.0%-18.5%0.000%
10/28/2025 Kennedy Investment Group19,690$197K0.1%-51.7%0.000%
10/22/2025Hennion & Walsh Asset Management Inc.359,217$3.60M0.1%+8.7%0.000%
9/4/2025Osaic Holdings Inc.12,727$123K0.0%+62.4%0.000%
8/18/2025Nomura Holdings Inc.10,000$96K0.0%N/A0.000%
8/18/2025Hollencrest Capital Management3,480$34K0.0%-53.1%0.000%
8/15/2025Bank of America Corp DE236,291$2.28M0.0%+7.5%0.000%
8/14/2025Raymond James Financial Inc.612,604$5.91M0.0%+16.3%0.000%
8/14/2025Karpus Management Inc.348,061$3.36M0.1%+307.9%0.000%
8/14/2025NewEdge Advisors LLC23,836$230K0.0%-5.5%0.000%
8/13/2025StoneX Group Inc.146,676$1.41M0.1%+13.0%0.000%
8/13/2025Guggenheim Capital LLC431,444$4.16M0.0%-4.7%0.000%
8/13/2025 Elevation Point Wealth Partners LLC6,100$59K0.0%N/A0.000%
8/12/2025Advisors Asset Management Inc.148,006$1.43M0.0%-23.2%0.000%
8/12/2025Horizon Kinetics Asset Management LLC43,950$424K0.0%+11.0%0.000%
8/12/2025Franklin Resources Inc.21,635$209K0.0%N/A0.000%
8/8/2025Fiera Capital Corp178,361$1.72M0.0%-0.7%0.000%
8/5/2025Freestone Capital Holdings LLC48,600$469K0.0%+69.9%0.000%
8/4/2025 Wolverine Asset Management LLC105,924$1.02M0.0%+118.7%0.000%
7/31/2025 Whipplewood Advisors LLC33,867$326K0.2%+209.0%0.000%
7/29/2025 Stratos Wealth Partners LTD.11,371$110K0.0%N/A0.000%
7/25/2025Ackerman Capital Advisors LLC11,790$114K0.0%-17.8%0.000%
7/16/2025 Kennedy Investment Group40,792$393K0.2%-10.9%0.000%
5/16/2025NewEdge Advisors LLC25,236$252K0.0%+8.6%0.112%
5/16/2025AQR Arbitrage LLC12,526$125K0.0%-77.5%0.056%
5/16/2025Advisors Asset Management Inc.192,615$1.93M0.0%-36.7%0.855%
5/15/2025Retirement Planning Co of New England Inc.42,000$420K0.2%N/A0.187%
5/13/2025Raymond James Financial Inc.526,772$5.27M0.0%+5.3%2.339%
5/13/2025Sit Investment Associates Inc.423,520$4.24M0.1%+49.3%1.881%
5/13/2025HighTower Advisors LLC18,619$186K0.0%-18.0%0.083%
5/12/2025Nuveen LLC26,618$266K0.0%N/A0.118%
5/12/2025Virtu Financial LLC10,419$104K0.0%-43.5%0.046%
5/12/2025Invesco Ltd.38,177$382K0.0%-49.3%0.170%
5/12/2025Wolverine Asset Management LLC48,427$484K0.0%+414.6%0.215%
5/9/2025Ackerman Capital Advisors LLC14,346$143K0.0%-46.3%0.064%
5/7/2025Fiera Capital Corp179,576$1.80M0.0%-7.8%0.798%
5/2/2025Retirement Planning Co of New England Inc.42,000$420K0.1%N/A0.187%
5/1/2025High Note Wealth LLC7,361$74K0.0%-41.5%0.033%
4/29/2025Mackay Shields LLC1,026,805$10.27M0.3%+3.5%4.560%
4/22/2025Kennedy Investment Group45,763$458K0.2%-8.7%0.203%
4/15/2025Noble Wealth Management PBC18,592$186K0.1%+6.9%0.083%
4/14/2025Capital Investment Advisors LLC15,770$158K0.0%+8.2%0.070%
4/10/2025Hennion & Walsh Asset Management Inc.191,337$1.91M0.1%+476.1%0.850%
4/10/2025Whipplewood Advisors LLC10,960$110K0.0%-67.5%0.049%
4/8/2025Rothschild Investment LLC50,933$509K0.0%-7.7%0.226%
2/18/2025Elequin Capital LP3,937$39K0.0%N/A0.017%
2/17/2025Nomura Holdings Inc.20,610$203K0.0%N/A0.092%
2/17/2025Nuveen Asset Management LLC48,173$475K0.0%+43.3%0.214%
2/17/2025Logan Stone Capital LLC78,119$770K0.3%-17.5%0.347%
2/17/2025Citadel Advisors LLC12,201$120K0.0%N/A0.054%
2/17/2025Ameriprise Financial Inc.34,750$343K0.0%+9.4%0.154%
2/14/2025AQR Arbitrage LLC55,671$549K0.0%-49.7%0.247%
2/14/2025Stifel Financial Corp32,006$316K0.0%-8.5%0.142%
2/14/2025First Trust Advisors LP12,524$123K0.0%-16.0%0.056%
2/13/2025NewEdge Advisors LLC23,236$229K0.0%+27.4%0.103%
2/13/2025Guggenheim Capital LLC499,159$4.92M0.0%+32.5%2.217%
2/13/2025Raymond James Financial Inc.500,437$4.93M0.0%N/A2.222%
2/13/2025Invesco Ltd.75,227$742K0.0%-31.7%0.334%
2/13/2025Sit Investment Associates Inc.283,593$2.80M0.1%+3.7%1.259%


MQT Institutional Ownership - Frequently Asked Questions

Who are the largest shareholders of MQT shares?

During the previous two years, 63 institutional investors and hedge funds held shares of BlackRock MuniYield Quality Fund II. The most heavily invested institutionals were Rivernorth Capital Management LLC ($14.84M), Sit Investment Associates Inc. ($12.48M), Mackay Shields LLC ($10.14M), Raymond James Financial Inc. ($6.76M), International Assets Investment Management LLC ($5.75M), Robinson Capital Management LLC ($5.01M), and Hennion & Walsh Asset Management Inc. ($3.41M).Learn more on BlackRock MuniYield Quality Fund II's institutional investors.

What percentage of BlackRock MuniYield Quality Fund II's stock is owned by institutional investors?

30.75% of BlackRock MuniYield Quality Fund II's stock is owned by institutional investors. Learn more on MQT's institutional investor holdings.

Which institutional investors have been buying BlackRock MuniYield Quality Fund II's stock?

Of the 50 institutional investors that purchased BlackRock MuniYield Quality Fund II's stock in the last 24 months, the following investors and hedge funds have bought the highest volume of shares: Raymond James Financial Inc. ($1.17M), Sit Investment Associates Inc. ($770.98K), Karpus Management Inc. ($262.73K), Hennion & Walsh Asset Management Inc. ($220.05K), StoneX Group Inc. ($151.28K), Wolverine Asset Management LLC ($136.17K), and NewEdge Advisors LLC ($123.31K).

How much institutional buying is happening at BlackRock MuniYield Quality Fund II?

Institutional investors have bought a total of 1,947,033 shares in the last 24 months. This purchase volume represents approximately $19.27M in transactions.

Which of BlackRock MuniYield Quality Fund II's major shareholders have been selling company stock?

Of the 22 institutional investors that sold BlackRock MuniYield Quality Fund II's stock in the last 24 months, the following investors and hedge funds have sold the highest volume of shares: Guggenheim Capital LLC ($187.03K), Advisors Asset Management Inc. ($156.48K), Rothschild Investment LLC ($48.43K), AQR Arbitrage LLC ($43.15K), Invesco Ltd. ($37.05K), Bank of America Corp DE ($27.49K), and Kennedy Investment Group ($26.07K).

How much institutional selling is happening at BlackRock MuniYield Quality Fund II?

Institutional investors have sold a total of 675,000 shares in the last 24 months. This volume of shares sold represents approximately $6.73M in transactions.



This page (NYSE:MQT) was last updated on 5/5/2026 by MarketBeat.com Staff.
From Our Partners